sensor_id;sensor_type;location;lat;lon;timestamp;P1;durP1;ratioP1;P2;durP2;ratioP2
78555;SDS011;67851;51.354;7.744;2023-05-07T00:01:00;18.17;;;9.15;;
78555;SDS011;67851;51.354;7.744;2023-05-07T00:03:27;25.02;;;9.25;;
78555;SDS011;67851;51.354;7.744;2023-05-07T00:05:54;11.05;;;6.47;;
78555;SDS011;67851;51.354;7.744;2023-05-07T00:08:19;14.13;;;7.20;;
78555;SDS011;67851;51.354;7.744;2023-05-07T00:10:47;10.68;;;6.70;;
78555;SDS011;67851;51.354;7.744;2023-05-07T00:13:12;11.98;;;6.35;;
78555;SDS011;67851;51.354;7.744;2023-05-07T00:15:38;11.05;;;6.63;;
78555;SDS011;67851;51.354;7.744;2023-05-07T00:18:05;13.00;;;7.00;;
78555;SDS011;67851;51.354;7.744;2023-05-07T00:20:34;15.23;;;6.60;;
78555;SDS011;67851;51.354;7.744;2023-05-07T00:22:59;13.43;;;6.43;;
78555;SDS011;67851;51.354;7.744;2023-05-07T00:25:25;17.15;;;7.38;;
78555;SDS011;67851;51.354;7.744;2023-05-07T00:27:50;14.80;;;6.72;;
78555;SDS011;67851;51.354;7.744;2023-05-07T00:30:16;11.05;;;6.70;;
78555;SDS011;67851;51.354;7.744;2023-05-07T00:32:42;10.45;;;6.30;;
78555;SDS011;67851;51.354;7.744;2023-05-07T00:35:10;12.70;;;6.90;;
78555;SDS011;67851;51.354;7.744;2023-05-07T00:37:37;9.68;;;6.20;;
78555;SDS011;67851;51.354;7.744;2023-05-07T00:40:03;21.77;;;7.20;;
78555;SDS011;67851;51.354;7.744;2023-05-07T00:42:32;11.70;;;6.13;;
78555;SDS011;67851;51.354;7.744;2023-05-07T00:44:59;13.98;;;7.43;;
78555;SDS011;67851;51.354;7.744;2023-05-07T00:47:24;16.30;;;6.85;;
78555;SDS011;67851;51.354;7.744;2023-05-07T00:49:50;9.27;;;6.50;;
78555;SDS011;67851;51.354;7.744;2023-05-07T00:52:16;13.32;;;6.55;;
78555;SDS011;67851;51.354;7.744;2023-05-07T00:54:43;10.38;;;5.95;;
78555;SDS011;67851;51.354;7.744;2023-05-07T00:57:11;13.35;;;6.95;;
78555;SDS011;67851;51.354;7.744;2023-05-07T00:59:37;11.32;;;6.80;;
78555;SDS011;67851;51.354;7.744;2023-05-07T01:02:03;10.20;;;6.10;;
78555;SDS011;67851;51.354;7.744;2023-05-07T01:04:29;9.85;;;6.10;;
78555;SDS011;67851;51.354;7.744;2023-05-07T01:06:56;20.02;;;7.15;;
78555;SDS011;67851;51.354;7.744;2023-05-07T01:09:23;9.38;;;6.50;;
78555;SDS011;67851;51.354;7.744;2023-05-07T01:11:49;8.00;;;5.90;;
78555;SDS011;67851;51.354;7.744;2023-05-07T01:14:18;11.85;;;6.18;;
78555;SDS011;67851;51.354;7.744;2023-05-07T01:16:44;16.65;;;6.07;;
78555;SDS011;67851;51.354;7.744;2023-05-07T01:19:11;11.35;;;6.53;;
78555;SDS011;67851;51.354;7.744;2023-05-07T01:21:39;13.88;;;6.80;;
78555;SDS011;67851;51.354;7.744;2023-05-07T01:24:11;14.33;;;5.73;;
78555;SDS011;67851;51.354;7.744;2023-05-07T01:26:37;9.32;;;6.15;;
78555;SDS011;67851;51.354;7.744;2023-05-07T01:29:03;7.25;;;5.28;;
78555;SDS011;67851;51.354;7.744;2023-05-07T01:31:31;5.40;;;4.20;;
78555;SDS011;67851;51.354;7.744;2023-05-07T01:33:58;7.47;;;4.05;;
78555;SDS011;67851;51.354;7.744;2023-05-07T01:36:25;12.23;;;4.80;;
78555;SDS011;67851;51.354;7.744;2023-05-07T01:38:52;7.18;;;4.40;;
78555;SDS011;67851;51.354;7.744;2023-05-07T01:41:39;7.45;;;4.68;;
78555;SDS011;67851;51.354;7.744;2023-05-07T01:44:05;9.13;;;5.05;;
78555;SDS011;67851;51.354;7.744;2023-05-07T01:46:31;9.40;;;4.68;;
78555;SDS011;67851;51.354;7.744;2023-05-07T01:48:56;10.98;;;5.63;;
78555;SDS011;67851;51.354;7.744;2023-05-07T01:51:22;7.30;;;4.85;;
78555;SDS011;67851;51.354;7.744;2023-05-07T01:53:50;11.75;;;5.05;;
78555;SDS011;67851;51.354;7.744;2023-05-07T01:56:19;10.45;;;5.95;;
78555;SDS011;67851;51.354;7.744;2023-05-07T01:58:48;10.00;;;5.85;;
78555;SDS011;67851;51.354;7.744;2023-05-07T02:01:16;8.57;;;5.47;;
78555;SDS011;67851;51.354;7.744;2023-05-07T02:03:43;14.77;;;5.63;;
78555;SDS011;67851;51.354;7.744;2023-05-07T02:06:17;8.13;;;5.55;;
78555;SDS011;67851;51.354;7.744;2023-05-07T02:08:45;6.07;;;4.45;;
78555;SDS011;67851;51.354;7.744;2023-05-07T02:11:53;8.75;;;4.75;;
78555;SDS011;67851;51.354;7.744;2023-05-07T02:14:22;12.35;;;5.60;;
78555;SDS011;67851;51.354;7.744;2023-05-07T02:16:47;12.15;;;6.10;;
78555;SDS011;67851;51.354;7.744;2023-05-07T02:19:14;7.97;;;4.20;;
78555;SDS011;67851;51.354;7.744;2023-05-07T02:21:41;9.82;;;4.70;;
78555;SDS011;67851;51.354;7.744;2023-05-07T02:24:06;7.15;;;4.07;;
78555;SDS011;67851;51.354;7.744;2023-05-07T02:26:33;10.25;;;4.38;;
78555;SDS011;67851;51.354;7.744;2023-05-07T02:29:00;8.20;;;4.25;;
78555;SDS011;67851;51.354;7.744;2023-05-07T02:31:25;8.77;;;4.88;;
78555;SDS011;67851;51.354;7.744;2023-05-07T02:33:51;10.27;;;5.00;;
78555;SDS011;67851;51.354;7.744;2023-05-07T02:36:17;9.15;;;5.18;;
78555;SDS011;67851;51.354;7.744;2023-05-07T02:38:51;10.27;;;5.32;;
78555;SDS011;67851;51.354;7.744;2023-05-07T02:41:18;12.65;;;5.60;;
78555;SDS011;67851;51.354;7.744;2023-05-07T02:43:44;11.20;;;5.65;;
78555;SDS011;67851;51.354;7.744;2023-05-07T02:46:10;20.33;;;6.05;;
78555;SDS011;67851;51.354;7.744;2023-05-07T02:48:41;16.30;;;6.55;;
78555;SDS011;67851;51.354;7.744;2023-05-07T02:51:08;9.25;;;5.60;;
78555;SDS011;67851;51.354;7.744;2023-05-07T02:53:37;13.00;;;5.78;;
78555;SDS011;67851;51.354;7.744;2023-05-07T02:56:04;13.82;;;6.15;;
78555;SDS011;67851;51.354;7.744;2023-05-07T02:58:30;10.43;;;5.70;;
78555;SDS011;67851;51.354;7.744;2023-05-07T03:00:58;16.38;;;6.53;;
78555;SDS011;67851;51.354;7.744;2023-05-07T03:03:41;11.75;;;5.93;;
78555;SDS011;67851;51.354;7.744;2023-05-07T03:06:06;10.73;;;6.28;;
78555;SDS011;67851;51.354;7.744;2023-05-07T03:08:33;13.60;;;5.95;;
78555;SDS011;67851;51.354;7.744;2023-05-07T03:11:02;16.70;;;6.88;;
78555;SDS011;67851;51.354;7.744;2023-05-07T03:13:28;11.45;;;5.15;;
78555;SDS011;67851;51.354;7.744;2023-05-07T03:15:55;10.02;;;5.78;;
78555;SDS011;67851;51.354;7.744;2023-05-07T03:18:22;13.57;;;5.65;;
78555;SDS011;67851;51.354;7.744;2023-05-07T03:20:48;10.20;;;5.75;;
78555;SDS011;67851;51.354;7.744;2023-05-07T03:23:16;10.10;;;6.32;;
78555;SDS011;67851;51.354;7.744;2023-05-07T03:25:41;10.93;;;6.50;;
78555;SDS011;67851;51.354;7.744;2023-05-07T03:28:07;15.10;;;6.88;;
78555;SDS011;67851;51.354;7.744;2023-05-07T03:30:42;12.40;;;6.63;;
78555;SDS011;67851;51.354;7.744;2023-05-07T03:33:07;15.00;;;7.05;;
78555;SDS011;67851;51.354;7.744;2023-05-07T03:35:35;12.98;;;6.97;;
78555;SDS011;67851;51.354;7.744;2023-05-07T03:38:02;14.80;;;6.43;;
78555;SDS011;67851;51.354;7.744;2023-05-07T03:40:30;13.10;;;6.82;;
78555;SDS011;67851;51.354;7.744;2023-05-07T03:42:56;11.18;;;6.38;;
78555;SDS011;67851;51.354;7.744;2023-05-07T03:45:24;10.50;;;6.32;;
78555;SDS011;67851;51.354;7.744;2023-05-07T03:48:00;10.65;;;5.90;;
78555;SDS011;67851;51.354;7.744;2023-05-07T03:50:28;10.95;;;5.70;;
78555;SDS011;67851;51.354;7.744;2023-05-07T03:52:53;10.50;;;5.47;;
78555;SDS011;67851;51.354;7.744;2023-05-07T03:55:22;9.35;;;5.55;;
78555;SDS011;67851;51.354;7.744;2023-05-07T03:57:55;13.70;;;5.30;;
78555;SDS011;67851;51.354;7.744;2023-05-07T04:00:24;14.10;;;5.35;;
78555;SDS011;67851;51.354;7.744;2023-05-07T04:02:50;13.02;;;5.47;;
78555;SDS011;67851;51.354;7.744;2023-05-07T04:05:26;9.25;;;5.65;;
78555;SDS011;67851;51.354;7.744;2023-05-07T04:07:58;7.75;;;5.07;;
78555;SDS011;67851;51.354;7.744;2023-05-07T04:10:33;13.35;;;6.07;;
78555;SDS011;67851;51.354;7.744;2023-05-07T04:13:02;11.30;;;5.60;;
78555;SDS011;67851;51.354;7.744;2023-05-07T04:15:28;12.18;;;5.28;;
78555;SDS011;67851;51.354;7.744;2023-05-07T04:17:54;10.18;;;5.28;;
78555;SDS011;67851;51.354;7.744;2023-05-07T04:20:23;12.10;;;5.10;;
78555;SDS011;67851;51.354;7.744;2023-05-07T04:22:55;9.77;;;5.07;;
78555;SDS011;67851;51.354;7.744;2023-05-07T04:25:21;11.45;;;5.57;;
78555;SDS011;67851;51.354;7.744;2023-05-07T04:27:48;11.40;;;5.22;;
78555;SDS011;67851;51.354;7.744;2023-05-07T04:30:15;14.27;;;5.75;;
78555;SDS011;67851;51.354;7.744;2023-05-07T04:32:41;10.93;;;5.63;;
78555;SDS011;67851;51.354;7.744;2023-05-07T04:35:17;12.48;;;5.50;;
78555;SDS011;67851;51.354;7.744;2023-05-07T04:37:43;11.88;;;5.72;;
78555;SDS011;67851;51.354;7.744;2023-05-07T04:40:10;10.75;;;6.18;;
78555;SDS011;67851;51.354;7.744;2023-05-07T04:42:36;16.42;;;6.60;;
78555;SDS011;67851;51.354;7.744;2023-05-07T04:45:02;8.93;;;5.57;;
78555;SDS011;67851;51.354;7.744;2023-05-07T04:47:32;9.60;;;5.68;;
78555;SDS011;67851;51.354;7.744;2023-05-07T04:49:59;8.27;;;5.30;;
78555;SDS011;67851;51.354;7.744;2023-05-07T04:52:27;8.48;;;6.03;;
78555;SDS011;67851;51.354;7.744;2023-05-07T04:54:53;12.63;;;5.68;;
78555;SDS011;67851;51.354;7.744;2023-05-07T04:57:20;13.90;;;5.82;;
78555;SDS011;67851;51.354;7.744;2023-05-07T04:59:45;13.73;;;5.70;;
78555;SDS011;67851;51.354;7.744;2023-05-07T05:02:12;13.57;;;5.82;;
78555;SDS011;67851;51.354;7.744;2023-05-07T05:04:38;10.88;;;6.90;;
78555;SDS011;67851;51.354;7.744;2023-05-07T05:07:05;11.95;;;7.03;;
78555;SDS011;67851;51.354;7.744;2023-05-07T05:09:32;15.15;;;6.30;;
78555;SDS011;67851;51.354;7.744;2023-05-07T05:11:57;15.18;;;6.13;;
78555;SDS011;67851;51.354;7.744;2023-05-07T05:14:23;10.10;;;6.13;;
78555;SDS011;67851;51.354;7.744;2023-05-07T05:16:50;10.98;;;6.35;;
78555;SDS011;67851;51.354;7.744;2023-05-07T05:19:16;11.48;;;6.13;;
78555;SDS011;67851;51.354;7.744;2023-05-07T05:21:43;10.40;;;6.32;;
78555;SDS011;67851;51.354;7.744;2023-05-07T05:24:10;8.60;;;4.90;;
78555;SDS011;67851;51.354;7.744;2023-05-07T05:26:38;28.67;;;17.30;;
78555;SDS011;67851;51.354;7.744;2023-05-07T05:29:04;13.35;;;7.78;;
78555;SDS011;67851;51.354;7.744;2023-05-07T05:31:34;11.77;;;6.95;;
78555;SDS011;67851;51.354;7.744;2023-05-07T05:34:00;10.73;;;4.90;;
78555;SDS011;67851;51.354;7.744;2023-05-07T05:36:26;6.57;;;4.60;;
78555;SDS011;67851;51.354;7.744;2023-05-07T05:38:55;7.07;;;4.95;;
78555;SDS011;67851;51.354;7.744;2023-05-07T05:41:23;6.25;;;4.55;;
78555;SDS011;67851;51.354;7.744;2023-05-07T05:43:49;9.13;;;4.03;;
78555;SDS011;67851;51.354;7.744;2023-05-07T05:46:16;6.93;;;3.45;;
78555;SDS011;67851;51.354;7.744;2023-05-07T05:48:41;8.05;;;3.70;;
78555;SDS011;67851;51.354;7.744;2023-05-07T05:51:09;9.90;;;3.38;;
78555;SDS011;67851;51.354;7.744;2023-05-07T05:53:35;5.65;;;2.75;;
78555;SDS011;67851;51.354;7.744;2023-05-07T05:56:01;7.32;;;2.85;;
78555;SDS011;67851;51.354;7.744;2023-05-07T05:58:29;7.82;;;2.60;;
78555;SDS011;67851;51.354;7.744;2023-05-07T06:00:59;5.28;;;2.22;;
78555;SDS011;67851;51.354;7.744;2023-05-07T06:03:27;4.22;;;2.13;;
78555;SDS011;67851;51.354;7.744;2023-05-07T06:05:54;6.35;;;2.45;;
78555;SDS011;67851;51.354;7.744;2023-05-07T06:08:21;6.50;;;2.15;;
78555;SDS011;67851;51.354;7.744;2023-05-07T06:10:47;3.50;;;2.10;;
78555;SDS011;67851;51.354;7.744;2023-05-07T06:13:13;4.38;;;2.00;;
78555;SDS011;67851;51.354;7.744;2023-05-07T06:15:41;4.35;;;2.75;;
78555;SDS011;67851;51.354;7.744;2023-05-07T06:18:10;5.85;;;2.00;;
78555;SDS011;67851;51.354;7.744;2023-05-07T06:20:36;5.60;;;2.25;;
78555;SDS011;67851;51.354;7.744;2023-05-07T06:23:10;6.50;;;2.25;;
78555;SDS011;67851;51.354;7.744;2023-05-07T06:25:37;4.20;;;1.90;;
78555;SDS011;67851;51.354;7.744;2023-05-07T06:28:03;6.03;;;2.20;;
78555;SDS011;67851;51.354;7.744;2023-05-07T06:30:30;2.92;;;1.85;;
78555;SDS011;67851;51.354;7.744;2023-05-07T06:32:56;4.50;;;1.75;;
78555;SDS011;67851;51.354;7.744;2023-05-07T06:35:22;3.28;;;1.67;;
78555;SDS011;67851;51.354;7.744;2023-05-07T06:37:47;3.17;;;2.10;;
78555;SDS011;67851;51.354;7.744;2023-05-07T06:40:18;3.22;;;1.83;;
78555;SDS011;67851;51.354;7.744;2023-05-07T06:42:46;4.88;;;1.90;;
78555;SDS011;67851;51.354;7.744;2023-05-07T06:45:34;3.42;;;1.83;;
78555;SDS011;67851;51.354;7.744;2023-05-07T06:48:00;4.15;;;1.35;;
78555;SDS011;67851;51.354;7.744;2023-05-07T06:50:31;7.20;;;1.90;;
78555;SDS011;67851;51.354;7.744;2023-05-07T06:52:58;2.67;;;1.50;;
78555;SDS011;67851;51.354;7.744;2023-05-07T06:55:24;5.00;;;1.60;;
78555;SDS011;67851;51.354;7.744;2023-05-07T06:57:52;5.00;;;1.65;;
78555;SDS011;67851;51.354;7.744;2023-05-07T07:00:20;4.07;;;1.73;;
78555;SDS011;67851;51.354;7.744;2023-05-07T07:02:50;3.28;;;1.75;;
78555;SDS011;67851;51.354;7.744;2023-05-07T07:05:19;3.08;;;1.42;;
78555;SDS011;67851;51.354;7.744;2023-05-07T07:07:45;3.45;;;1.55;;
78555;SDS011;67851;51.354;7.744;2023-05-07T07:10:18;5.32;;;1.80;;
78555;SDS011;67851;51.354;7.744;2023-05-07T07:12:45;1.90;;;1.50;;
78555;SDS011;67851;51.354;7.744;2023-05-07T07:15:11;3.03;;;2.00;;
78555;SDS011;67851;51.354;7.744;2023-05-07T07:17:38;3.05;;;1.85;;
78555;SDS011;67851;51.354;7.744;2023-05-07T07:20:05;4.07;;;1.65;;
78555;SDS011;67851;51.354;7.744;2023-05-07T07:22:32;4.07;;;1.75;;
78555;SDS011;67851;51.354;7.744;2023-05-07T07:24:58;9.30;;;1.83;;
78555;SDS011;67851;51.354;7.744;2023-05-07T07:27:25;2.40;;;1.50;;
78555;SDS011;67851;51.354;7.744;2023-05-07T07:29:52;4.38;;;1.80;;
78555;SDS011;67851;51.354;7.744;2023-05-07T07:32:19;4.25;;;1.90;;
78555;SDS011;67851;51.354;7.744;2023-05-07T07:34:46;5.53;;;1.95;;
78555;SDS011;67851;51.354;7.744;2023-05-07T07:37:12;3.83;;;1.58;;
78555;SDS011;67851;51.354;7.744;2023-05-07T07:39:38;4.05;;;1.83;;
78555;SDS011;67851;51.354;7.744;2023-05-07T07:42:04;4.28;;;1.88;;
78555;SDS011;67851;51.354;7.744;2023-05-07T07:44:31;9.13;;;2.10;;
78555;SDS011;67851;51.354;7.744;2023-05-07T07:47:01;4.40;;;1.63;;
78555;SDS011;67851;51.354;7.744;2023-05-07T07:49:31;2.90;;;1.58;;
78555;SDS011;67851;51.354;7.744;2023-05-07T07:52:01;6.32;;;2.33;;
78555;SDS011;67851;51.354;7.744;2023-05-07T07:54:28;3.35;;;1.60;;
78555;SDS011;67851;51.354;7.744;2023-05-07T07:56:55;3.92;;;2.13;;
78555;SDS011;67851;51.354;7.744;2023-05-07T07:59:22;2.28;;;1.60;;
78555;SDS011;67851;51.354;7.744;2023-05-07T08:01:49;5.07;;;2.47;;
78555;SDS011;67851;51.354;7.744;2023-05-07T08:04:18;5.53;;;2.05;;
78555;SDS011;67851;51.354;7.744;2023-05-07T08:07:05;3.55;;;1.50;;
78555;SDS011;67851;51.354;7.744;2023-05-07T08:09:34;2.03;;;1.33;;
78555;SDS011;67851;51.354;7.744;2023-05-07T08:12:03;3.55;;;1.60;;
78555;SDS011;67851;51.354;7.744;2023-05-07T08:14:34;4.07;;;1.30;;
78555;SDS011;67851;51.354;7.744;2023-05-07T08:17:00;2.08;;;1.20;;
78555;SDS011;67851;51.354;7.744;2023-05-07T08:19:28;3.33;;;1.60;;
78555;SDS011;67851;51.354;7.744;2023-05-07T08:21:55;1.55;;;1.10;;
78555;SDS011;67851;51.354;7.744;2023-05-07T08:24:22;1.52;;;0.95;;
78555;SDS011;67851;51.354;7.744;2023-05-07T08:26:48;4.68;;;1.20;;
78555;SDS011;67851;51.354;7.744;2023-05-07T08:29:15;3.92;;;1.20;;
78555;SDS011;67851;51.354;7.744;2023-05-07T08:31:42;3.08;;;1.00;;
78555;SDS011;67851;51.354;7.744;2023-05-07T08:34:09;4.93;;;1.50;;
78555;SDS011;67851;51.354;7.744;2023-05-07T08:36:37;2.40;;;1.23;;
78555;SDS011;67851;51.354;7.744;2023-05-07T08:39:06;1.58;;;1.00;;
78555;SDS011;67851;51.354;7.744;2023-05-07T08:41:32;1.55;;;1.10;;
78555;SDS011;67851;51.354;7.744;2023-05-07T08:43:58;2.72;;;1.15;;
78555;SDS011;67851;51.354;7.744;2023-05-07T08:46:28;5.00;;;1.30;;
78555;SDS011;67851;51.354;7.744;2023-05-07T08:48:58;2.10;;;1.25;;
78555;SDS011;67851;51.354;7.744;2023-05-07T08:51:23;5.60;;;1.52;;
78555;SDS011;67851;51.354;7.744;2023-05-07T08:53:49;1.85;;;0.98;;
78555;SDS011;67851;51.354;7.744;2023-05-07T08:58:48;1.88;;;1.10;;
78555;SDS011;67851;51.354;7.744;2023-05-07T09:01:15;3.33;;;1.00;;
78555;SDS011;67851;51.354;7.744;2023-05-07T09:03:45;3.17;;;1.30;;
78555;SDS011;67851;51.354;7.744;2023-05-07T09:06:12;1.40;;;1.00;;
78555;SDS011;67851;51.354;7.744;2023-05-07T09:08:40;5.20;;;1.17;;
78555;SDS011;67851;51.354;7.744;2023-05-07T09:11:08;2.92;;;1.00;;
78555;SDS011;67851;51.354;7.744;2023-05-07T09:13:35;3.88;;;0.90;;
78555;SDS011;67851;51.354;7.744;2023-05-07T09:16:12;1.85;;;0.98;;
78555;SDS011;67851;51.354;7.744;2023-05-07T09:18:41;5.28;;;1.10;;
78555;SDS011;67851;51.354;7.744;2023-05-07T09:21:14;7.68;;;1.30;;
78555;SDS011;67851;51.354;7.744;2023-05-07T09:23:41;2.60;;;1.27;;
78555;SDS011;67851;51.354;7.744;2023-05-07T09:26:12;3.08;;;1.23;;
78555;SDS011;67851;51.354;7.744;2023-05-07T09:28:43;3.17;;;1.13;;
78555;SDS011;67851;51.354;7.744;2023-05-07T09:31:11;2.58;;;1.42;;
78555;SDS011;67851;51.354;7.744;2023-05-07T09:33:37;1.98;;;1.10;;
78555;SDS011;67851;51.354;7.744;2023-05-07T09:36:08;2.30;;;1.30;;
78555;SDS011;67851;51.354;7.744;2023-05-07T09:38:37;2.58;;;1.35;;
78555;SDS011;67851;51.354;7.744;2023-05-07T09:41:06;4.15;;;1.40;;
78555;SDS011;67851;51.354;7.744;2023-05-07T09:43:46;4.50;;;1.23;;
78555;SDS011;67851;51.354;7.744;2023-05-07T09:46:24;1.90;;;1.15;;
78555;SDS011;67851;51.354;7.744;2023-05-07T09:48:52;1.73;;;1.00;;
78555;SDS011;67851;51.354;7.744;2023-05-07T09:51:23;5.32;;;1.30;;
78555;SDS011;67851;51.354;7.744;2023-05-07T09:53:56;8.43;;;3.35;;
78555;SDS011;67851;51.354;7.744;2023-05-07T09:56:24;3.15;;;1.70;;
78555;SDS011;67851;51.354;7.744;2023-05-07T09:58:52;3.10;;;1.30;;
78555;SDS011;67851;51.354;7.744;2023-05-07T10:01:20;4.70;;;1.38;;
78555;SDS011;67851;51.354;7.744;2023-05-07T10:03:48;6.65;;;1.50;;
78555;SDS011;67851;51.354;7.744;2023-05-07T10:06:15;4.35;;;1.50;;
78555;SDS011;67851;51.354;7.744;2023-05-07T10:08:44;2.70;;;1.30;;
78555;SDS011;67851;51.354;7.744;2023-05-07T10:11:10;4.43;;;1.35;;
78555;SDS011;67851;51.354;7.744;2023-05-07T10:13:37;6.32;;;1.42;;
78555;SDS011;67851;51.354;7.744;2023-05-07T10:16:05;3.47;;;1.50;;
78555;SDS011;67851;51.354;7.744;2023-05-07T10:18:38;3.20;;;1.35;;
78555;SDS011;67851;51.354;7.744;2023-05-07T10:21:16;3.28;;;1.52;;
78555;SDS011;67851;51.354;7.744;2023-05-07T10:23:49;3.85;;;1.27;;
78555;SDS011;67851;51.354;7.744;2023-05-07T10:26:18;3.00;;;1.40;;
78555;SDS011;67851;51.354;7.744;2023-05-07T10:28:47;2.33;;;1.23;;
78555;SDS011;67851;51.354;7.744;2023-05-07T10:31:18;3.15;;;1.35;;
78555;SDS011;67851;51.354;7.744;2023-05-07T10:34:02;2.53;;;1.20;;
78555;SDS011;67851;51.354;7.744;2023-05-07T10:36:50;3.55;;;1.20;;
78555;SDS011;67851;51.354;7.744;2023-05-07T10:39:17;3.60;;;1.30;;
78555;SDS011;67851;51.354;7.744;2023-05-07T10:41:45;4.82;;;1.77;;
78555;SDS011;67851;51.354;7.744;2023-05-07T10:44:19;2.65;;;1.10;;
78555;SDS011;67851;51.354;7.744;2023-05-07T10:49:31;2.47;;;1.02;;
78555;SDS011;67851;51.354;7.744;2023-05-07T10:52:23;2.75;;;1.17;;
78555;SDS011;67851;51.354;7.744;2023-05-07T10:58:31;5.18;;;1.50;;
78555;SDS011;67851;51.354;7.744;2023-05-07T11:01:05;4.28;;;1.50;;
78555;SDS011;67851;51.354;7.744;2023-05-07T11:04:12;3.70;;;1.77;;
78555;SDS011;67851;51.354;7.744;2023-05-07T11:15:10;2.78;;;1.75;;
78555;SDS011;67851;51.354;7.744;2023-05-07T11:17:54;3.67;;;2.08;;
78555;SDS011;67851;51.354;7.744;2023-05-07T11:24:06;7.22;;;2.13;;
78555;SDS011;67851;51.354;7.744;2023-05-07T11:26:49;5.40;;;3.53;;
78555;SDS011;67851;51.354;7.744;2023-05-07T11:29:17;6.70;;;4.22;;
78555;SDS011;67851;51.354;7.744;2023-05-07T11:31:52;7.25;;;5.20;;
78555;SDS011;67851;51.354;7.744;2023-05-07T11:34:25;8.65;;;5.82;;
78555;SDS011;67851;51.354;7.744;2023-05-07T11:36:53;7.18;;;5.50;;
78555;SDS011;67851;51.354;7.744;2023-05-07T11:39:31;9.05;;;5.53;;
78555;SDS011;67851;51.354;7.744;2023-05-07T11:42:01;9.57;;;5.80;;
78555;SDS011;67851;51.354;7.744;2023-05-07T11:47:19;11.07;;;7.45;;
78555;SDS011;67851;51.354;7.744;2023-05-07T11:49:49;7.53;;;6.32;;
78555;SDS011;67851;51.354;7.744;2023-05-07T11:52:21;8.48;;;6.75;;
78555;SDS011;67851;51.354;7.744;2023-05-07T11:54:49;8.55;;;7.03;;
78555;SDS011;67851;51.354;7.744;2023-05-07T11:57:15;8.20;;;6.90;;
78555;SDS011;67851;51.354;7.744;2023-05-07T11:59:41;8.10;;;6.85;;
78555;SDS011;67851;51.354;7.744;2023-05-07T12:02:09;9.32;;;6.95;;
78555;SDS011;67851;51.354;7.744;2023-05-07T12:04:38;13.02;;;7.85;;
78555;SDS011;67851;51.354;7.744;2023-05-07T12:07:04;11.88;;;7.82;;
78555;SDS011;67851;51.354;7.744;2023-05-07T12:09:32;9.68;;;7.55;;
78555;SDS011;67851;51.354;7.744;2023-05-07T12:12:02;10.68;;;7.47;;
78555;SDS011;67851;51.354;7.744;2023-05-07T12:14:29;9.88;;;7.43;;
78555;SDS011;67851;51.354;7.744;2023-05-07T12:16:55;9.43;;;6.78;;
78555;SDS011;67851;51.354;7.744;2023-05-07T12:19:21;7.38;;;4.78;;
78555;SDS011;67851;51.354;7.744;2023-05-07T12:21:47;5.53;;;2.30;;
78555;SDS011;67851;51.354;7.744;2023-05-07T12:24:14;7.53;;;2.15;;
78555;SDS011;67851;51.354;7.744;2023-05-07T12:26:39;2.78;;;2.22;;
78555;SDS011;67851;51.354;7.744;2023-05-07T12:29:06;2.53;;;2.00;;
78555;SDS011;67851;51.354;7.744;2023-05-07T12:31:33;9.05;;;2.58;;
78555;SDS011;67851;51.354;7.744;2023-05-07T12:34:00;3.08;;;2.10;;
78555;SDS011;67851;51.354;7.744;2023-05-07T12:36:35;3.42;;;2.50;;
78555;SDS011;67851;51.354;7.744;2023-05-07T12:39:07;6.85;;;2.67;;
78555;SDS011;67851;51.354;7.744;2023-05-07T12:41:51;4.18;;;2.20;;
78555;SDS011;67851;51.354;7.744;2023-05-07T12:44:22;3.65;;;2.35;;
78555;SDS011;67851;51.354;7.744;2023-05-07T12:46:48;3.30;;;2.10;;
78555;SDS011;67851;51.354;7.744;2023-05-07T12:49:15;2.88;;;2.10;;
78555;SDS011;67851;51.354;7.744;2023-05-07T12:51:41;4.88;;;2.45;;
78555;SDS011;67851;51.354;7.744;2023-05-07T12:54:07;4.40;;;2.28;;
78555;SDS011;67851;51.354;7.744;2023-05-07T12:56:35;4.72;;;2.15;;
78555;SDS011;67851;51.354;7.744;2023-05-07T12:59:01;2.85;;;1.80;;
78555;SDS011;67851;51.354;7.744;2023-05-07T13:01:30;5.18;;;2.00;;
78555;SDS011;67851;51.354;7.744;2023-05-07T13:04:02;3.30;;;2.10;;
78555;SDS011;67851;51.354;7.744;2023-05-07T13:06:29;4.55;;;2.13;;
78555;SDS011;67851;51.354;7.744;2023-05-07T13:08:56;6.88;;;2.60;;
78555;SDS011;67851;51.354;7.744;2023-05-07T13:11:22;5.35;;;2.60;;
78555;SDS011;67851;51.354;7.744;2023-05-07T13:13:48;4.47;;;2.38;;
78555;SDS011;67851;51.354;7.744;2023-05-07T13:16:18;4.60;;;2.17;;
78555;SDS011;67851;51.354;7.744;2023-05-07T13:18:45;5.53;;;2.53;;
78555;SDS011;67851;51.354;7.744;2023-05-07T13:21:10;7.55;;;3.15;;
78555;SDS011;67851;51.354;7.744;2023-05-07T13:23:38;5.35;;;2.35;;
78555;SDS011;67851;51.354;7.744;2023-05-07T13:26:03;6.15;;;2.78;;
78555;SDS011;67851;51.354;7.744;2023-05-07T13:28:31;3.63;;;2.40;;
78555;SDS011;67851;51.354;7.744;2023-05-07T13:30:59;5.13;;;2.60;;
78555;SDS011;67851;51.354;7.744;2023-05-07T13:33:25;6.10;;;2.85;;
78555;SDS011;67851;51.354;7.744;2023-05-07T13:35:53;5.47;;;3.20;;
78555;SDS011;67851;51.354;7.744;2023-05-07T13:38:18;3.28;;;2.60;;
78555;SDS011;67851;51.354;7.744;2023-05-07T13:40:47;4.68;;;2.92;;
78555;SDS011;67851;51.354;7.744;2023-05-07T13:43:12;3.95;;;2.90;;
78555;SDS011;67851;51.354;7.744;2023-05-07T13:45:38;4.00;;;3.03;;
78555;SDS011;67851;51.354;7.744;2023-05-07T13:48:03;4.15;;;2.80;;
78555;SDS011;67851;51.354;7.744;2023-05-07T13:50:30;3.53;;;2.50;;
78555;SDS011;67851;51.354;7.744;2023-05-07T13:52:56;9.32;;;3.63;;
78555;SDS011;67851;51.354;7.744;2023-05-07T13:55:21;6.80;;;3.72;;
78555;SDS011;67851;51.354;7.744;2023-05-07T13:58:00;7.18;;;3.63;;
78555;SDS011;67851;51.354;7.744;2023-05-07T14:00:27;5.45;;;3.60;;
78555;SDS011;67851;51.354;7.744;2023-05-07T14:02:54;5.85;;;4.00;;
78555;SDS011;67851;51.354;7.744;2023-05-07T14:05:20;6.47;;;4.63;;
78555;SDS011;67851;51.354;7.744;2023-05-07T14:07:51;7.75;;;5.10;;
78555;SDS011;67851;51.354;7.744;2023-05-07T14:10:17;6.47;;;4.78;;
78555;SDS011;67851;51.354;7.744;2023-05-07T14:12:45;9.23;;;4.63;;
78555;SDS011;67851;51.354;7.744;2023-05-07T14:15:14;5.63;;;5.03;;
78555;SDS011;67851;51.354;7.744;2023-05-07T14:17:41;7.05;;;4.65;;
78555;SDS011;67851;51.354;7.744;2023-05-07T14:20:08;5.88;;;4.65;;
78555;SDS011;67851;51.354;7.744;2023-05-07T14:22:35;8.00;;;4.75;;
78555;SDS011;67851;51.354;7.744;2023-05-07T14:25:00;5.72;;;4.60;;
78555;SDS011;67851;51.354;7.744;2023-05-07T14:27:27;6.22;;;4.38;;
78555;SDS011;67851;51.354;7.744;2023-05-07T14:29:55;6.53;;;4.10;;
78555;SDS011;67851;51.354;7.744;2023-05-07T14:32:21;6.13;;;4.93;;
78555;SDS011;67851;51.354;7.744;2023-05-07T14:34:48;5.40;;;4.38;;
78555;SDS011;67851;51.354;7.744;2023-05-07T14:37:17;7.30;;;4.80;;
78555;SDS011;67851;51.354;7.744;2023-05-07T14:39:45;10.02;;;5.53;;
78555;SDS011;67851;51.354;7.744;2023-05-07T14:42:10;5.55;;;4.03;;
78555;SDS011;67851;51.354;7.744;2023-05-07T14:44:36;5.07;;;3.72;;
78555;SDS011;67851;51.354;7.744;2023-05-07T14:47:02;7.82;;;4.18;;
78555;SDS011;67851;51.354;7.744;2023-05-07T14:49:31;5.40;;;4.10;;
78555;SDS011;67851;51.354;7.744;2023-05-07T14:51:59;8.13;;;4.65;;
78555;SDS011;67851;51.354;7.744;2023-05-07T14:54:26;4.47;;;3.72;;
78555;SDS011;67851;51.354;7.744;2023-05-07T14:56:52;5.70;;;4.05;;
78555;SDS011;67851;51.354;7.744;2023-05-07T14:59:21;5.60;;;4.32;;
78555;SDS011;67851;51.354;7.744;2023-05-07T15:01:47;8.57;;;5.00;;
78555;SDS011;67851;51.354;7.744;2023-05-07T15:04:13;8.43;;;3.75;;
78555;SDS011;67851;51.354;7.744;2023-05-07T15:06:41;6.45;;;3.05;;
78555;SDS011;67851;51.354;7.744;2023-05-07T15:09:07;3.10;;;2.65;;
78555;SDS011;67851;51.354;7.744;2023-05-07T15:11:34;3.70;;;2.60;;
78555;SDS011;67851;51.354;7.744;2023-05-07T15:14:01;3.25;;;2.40;;